Terminal Aerodrome Forecast
Issued by NWS

Home | Current Version | Previous Version | Text Only | Print | Product List | Glossary On
Versions: 1 2 3 4 5 6 7 8 9 10 11 12 13 14 15 16 17 18 19 20
000
FTUS43 KLSX 211000 AAB
TAFCPS
TAF AMD
KCPS 211059Z 2111/2206 33012KT P6SM BKN020
     FM211200 33012KT P6SM SCT020
     FM211500 32012G18KT P6SM FEW040
     FM212300 35007KT P6SM SCT250=

USA.gov is the U.S. government's official web portal to all federal, state and local government web resources and services.